sensor_id;sensor_type;location;lat;lon;timestamp;P1;durP1;ratioP1;P2;durP2;ratioP2
9052;SDS011;4561;47.450;7.516;2023-02-18T00:02:20;1.10;;;1.00;;
9052;SDS011;4561;47.450;7.516;2023-02-18T00:05:42;1.13;;;1.07;;
9052;SDS011;4561;47.450;7.516;2023-02-18T00:09:03;2.23;;;0.90;;
9052;SDS011;4561;47.450;7.516;2023-02-18T00:12:27;1.23;;;1.13;;
9052;SDS011;4561;47.450;7.516;2023-02-18T00:15:49;1.73;;;1.30;;
9052;SDS011;4561;47.450;7.516;2023-02-18T00:19:14;1.00;;;1.00;;
9052;SDS011;4561;47.450;7.516;2023-02-18T00:22:38;0.93;;;0.93;;
9052;SDS011;4561;47.450;7.516;2023-02-18T00:26:02;1.20;;;1.10;;
9052;SDS011;4561;47.450;7.516;2023-02-18T00:29:31;0.90;;;0.80;;
9052;SDS011;4561;47.450;7.516;2023-02-18T00:32:52;1.33;;;1.23;;
9052;SDS011;4561;47.450;7.516;2023-02-18T00:36:14;1.27;;;1.17;;
9052;SDS011;4561;47.450;7.516;2023-02-18T00:39:35;1.07;;;1.00;;
9052;SDS011;4561;47.450;7.516;2023-02-18T00:42:56;1.27;;;1.10;;
9052;SDS011;4561;47.450;7.516;2023-02-18T00:46:19;1.40;;;1.30;;
9052;SDS011;4561;47.450;7.516;2023-02-18T00:49:40;1.27;;;1.17;;
9052;SDS011;4561;47.450;7.516;2023-02-18T00:53:01;1.60;;;1.50;;
9052;SDS011;4561;47.450;7.516;2023-02-18T00:56:21;1.40;;;1.30;;
9052;SDS011;4561;47.450;7.516;2023-02-18T00:59:44;2.40;;;1.20;;
9052;SDS011;4561;47.450;7.516;2023-02-18T01:03:05;1.60;;;1.50;;
9052;SDS011;4561;47.450;7.516;2023-02-18T01:06:28;1.73;;;1.33;;
9052;SDS011;4561;47.450;7.516;2023-02-18T01:09:49;1.23;;;1.17;;
9052;SDS011;4561;47.450;7.516;2023-02-18T01:13:12;1.37;;;1.27;;
9052;SDS011;4561;47.450;7.516;2023-02-18T01:16:33;1.47;;;1.23;;
9052;SDS011;4561;47.450;7.516;2023-02-18T01:19:54;1.00;;;1.00;;
9052;SDS011;4561;47.450;7.516;2023-02-18T01:23:14;1.20;;;1.10;;
9052;SDS011;4561;47.450;7.516;2023-02-18T01:26:37;1.07;;;0.97;;
9052;SDS011;4561;47.450;7.516;2023-02-18T01:29:58;2.03;;;1.30;;
9052;SDS011;4561;47.450;7.516;2023-02-18T01:33:18;1.03;;;1.03;;
9052;SDS011;4561;47.450;7.516;2023-02-18T01:36:41;1.30;;;0.80;;
9052;SDS011;4561;47.450;7.516;2023-02-18T01:40:04;0.97;;;0.90;;
9052;SDS011;4561;47.450;7.516;2023-02-18T01:43:25;1.00;;;0.87;;
9052;SDS011;4561;47.450;7.516;2023-02-18T01:46:46;1.30;;;1.03;;
9052;SDS011;4561;47.450;7.516;2023-02-18T01:50:09;0.87;;;0.83;;
9052;SDS011;4561;47.450;7.516;2023-02-18T01:53:32;1.20;;;1.10;;
9052;SDS011;4561;47.450;7.516;2023-02-18T01:57:00;1.07;;;0.93;;
9052;SDS011;4561;47.450;7.516;2023-02-18T02:00:25;1.00;;;1.00;;
9052;SDS011;4561;47.450;7.516;2023-02-18T02:03:45;0.93;;;0.93;;
9052;SDS011;4561;47.450;7.516;2023-02-18T02:07:06;0.67;;;0.67;;
9052;SDS011;4561;47.450;7.516;2023-02-18T02:11:13;0.97;;;0.70;;
9052;SDS011;4561;47.450;7.516;2023-02-18T02:14:15;0.80;;;0.80;;
9052;SDS011;4561;47.450;7.516;2023-02-18T02:35:39;0.93;;;0.87;;
9052;SDS011;4561;47.450;7.516;2023-02-18T02:39:37;1.00;;;0.90;;
9052;SDS011;4561;47.450;7.516;2023-02-18T02:47:12;0.70;;;0.70;;
9052;SDS011;4561;47.450;7.516;2023-02-18T02:50:39;1.20;;;0.73;;
9052;SDS011;4561;47.450;7.516;2023-02-18T02:54:17;0.90;;;0.90;;
9052;SDS011;4561;47.450;7.516;2023-02-18T02:57:46;0.60;;;0.60;;
9052;SDS011;4561;47.450;7.516;2023-02-18T03:12:26;0.80;;;0.77;;
9052;SDS011;4561;47.450;7.516;2023-02-18T03:16:05;0.70;;;0.70;;
9052;SDS011;4561;47.450;7.516;2023-02-18T03:19:39;1.00;;;0.90;;
9052;SDS011;4561;47.450;7.516;2023-02-18T03:23:06;0.70;;;0.70;;
9052;SDS011;4561;47.450;7.516;2023-02-18T03:26:29;0.80;;;0.70;;
9052;SDS011;4561;47.450;7.516;2023-02-18T03:29:57;0.90;;;0.80;;
9052;SDS011;4561;47.450;7.516;2023-02-18T03:33:30;0.70;;;0.70;;
9052;SDS011;4561;47.450;7.516;2023-02-18T03:36:55;0.53;;;0.50;;
9052;SDS011;4561;47.450;7.516;2023-02-18T03:40:17;0.50;;;0.50;;
9052;SDS011;4561;47.450;7.516;2023-02-18T03:43:41;0.73;;;0.60;;
9052;SDS011;4561;47.450;7.516;2023-02-18T03:47:11;0.53;;;0.53;;
9052;SDS011;4561;47.450;7.516;2023-02-18T03:50:34;0.73;;;0.67;;
9052;SDS011;4561;47.450;7.516;2023-02-18T03:53:57;0.60;;;0.60;;
9052;SDS011;4561;47.450;7.516;2023-02-18T03:57:18;0.60;;;0.50;;
9052;SDS011;4561;47.450;7.516;2023-02-18T04:00:38;0.67;;;0.67;;
9052;SDS011;4561;47.450;7.516;2023-02-18T04:04:01;1.13;;;0.80;;
9052;SDS011;4561;47.450;7.516;2023-02-18T04:07:22;0.73;;;0.70;;
9052;SDS011;4561;47.450;7.516;2023-02-18T04:10:45;0.63;;;0.60;;
9052;SDS011;4561;47.450;7.516;2023-02-18T04:14:05;0.77;;;0.70;;
9052;SDS011;4561;47.450;7.516;2023-02-18T04:17:28;1.07;;;0.70;;
9052;SDS011;4561;47.450;7.516;2023-02-18T04:20:49;0.50;;;0.40;;
9052;SDS011;4561;47.450;7.516;2023-02-18T04:24:11;1.43;;;0.70;;
9052;SDS011;4561;47.450;7.516;2023-02-18T04:27:32;1.17;;;0.73;;
9052;SDS011;4561;47.450;7.516;2023-02-18T04:30:52;1.63;;;0.77;;
9052;SDS011;4561;47.450;7.516;2023-02-18T04:34:12;1.50;;;0.60;;
9052;SDS011;4561;47.450;7.516;2023-02-18T04:37:33;0.50;;;0.50;;
9052;SDS011;4561;47.450;7.516;2023-02-18T04:40:56;0.70;;;0.70;;
9052;SDS011;4561;47.450;7.516;2023-02-18T04:44:16;0.60;;;0.60;;
9052;SDS011;4561;47.450;7.516;2023-02-18T04:47:39;0.77;;;0.63;;
9052;SDS011;4561;47.450;7.516;2023-02-18T04:51:00;0.70;;;0.50;;
9052;SDS011;4561;47.450;7.516;2023-02-18T04:54:20;0.70;;;0.70;;
9052;SDS011;4561;47.450;7.516;2023-02-18T04:57:41;0.50;;;0.40;;
9052;SDS011;4561;47.450;7.516;2023-02-18T05:01:01;0.40;;;0.40;;
9052;SDS011;4561;47.450;7.516;2023-02-18T05:04:23;0.40;;;0.40;;
9052;SDS011;4561;47.450;7.516;2023-02-18T05:07:45;0.60;;;0.60;;
9052;SDS011;4561;47.450;7.516;2023-02-18T05:11:08;0.30;;;0.30;;
9052;SDS011;4561;47.450;7.516;2023-02-18T05:14:28;0.73;;;0.40;;
9052;SDS011;4561;47.450;7.516;2023-02-18T05:17:48;0.67;;;0.60;;
9052;SDS011;4561;47.450;7.516;2023-02-18T05:21:09;1.00;;;0.60;;
9052;SDS011;4561;47.450;7.516;2023-02-18T05:24:34;0.50;;;0.50;;
9052;SDS011;4561;47.450;7.516;2023-02-18T05:27:55;0.70;;;0.50;;
9052;SDS011;4561;47.450;7.516;2023-02-18T05:31:17;2.07;;;0.70;;
9052;SDS011;4561;47.450;7.516;2023-02-18T05:34:40;0.50;;;0.50;;
9052;SDS011;4561;47.450;7.516;2023-02-18T05:38:00;0.50;;;0.40;;
9052;SDS011;4561;47.450;7.516;2023-02-18T05:41:24;0.50;;;0.40;;
9052;SDS011;4561;47.450;7.516;2023-02-18T05:44:45;0.87;;;0.50;;
9052;SDS011;4561;47.450;7.516;2023-02-18T05:48:05;0.43;;;0.43;;
9052;SDS011;4561;47.450;7.516;2023-02-18T05:51:26;0.47;;;0.47;;
9052;SDS011;4561;47.450;7.516;2023-02-18T05:54:46;0.50;;;0.50;;
9052;SDS011;4561;47.450;7.516;2023-02-18T05:58:09;1.37;;;0.50;;
9052;SDS011;4561;47.450;7.516;2023-02-18T06:01:32;1.13;;;0.70;;
9052;SDS011;4561;47.450;7.516;2023-02-18T06:04:53;0.93;;;0.60;;
9052;SDS011;4561;47.450;7.516;2023-02-18T06:08:13;1.00;;;0.57;;
9052;SDS011;4561;47.450;7.516;2023-02-18T06:11:34;0.60;;;0.60;;
9052;SDS011;4561;47.450;7.516;2023-02-18T06:14:54;0.70;;;0.70;;
9052;SDS011;4561;47.450;7.516;2023-02-18T06:18:19;1.03;;;0.60;;
9052;SDS011;4561;47.450;7.516;2023-02-18T06:21:40;0.70;;;0.60;;
9052;SDS011;4561;47.450;7.516;2023-02-18T06:25:03;0.40;;;0.40;;
9052;SDS011;4561;47.450;7.516;2023-02-18T06:28:24;0.97;;;0.53;;
9052;SDS011;4561;47.450;7.516;2023-02-18T06:31:44;1.37;;;0.50;;
9052;SDS011;4561;47.450;7.516;2023-02-18T06:35:07;0.63;;;0.63;;
9052;SDS011;4561;47.450;7.516;2023-02-18T06:38:28;0.60;;;0.60;;
9052;SDS011;4561;47.450;7.516;2023-02-18T06:41:53;0.40;;;0.40;;
9052;SDS011;4561;47.450;7.516;2023-02-18T06:45:13;0.50;;;0.50;;
9052;SDS011;4561;47.450;7.516;2023-02-18T06:48:36;0.50;;;0.50;;
9052;SDS011;4561;47.450;7.516;2023-02-18T06:51:57;0.93;;;0.60;;
9052;SDS011;4561;47.450;7.516;2023-02-18T06:55:18;1.17;;;0.60;;
9052;SDS011;4561;47.450;7.516;2023-02-18T06:58:38;1.20;;;0.70;;
9052;SDS011;4561;47.450;7.516;2023-02-18T07:01:59;0.50;;;0.50;;
9052;SDS011;4561;47.450;7.516;2023-02-18T07:05:21;1.33;;;0.70;;
9052;SDS011;4561;47.450;7.516;2023-02-18T07:08:42;0.87;;;0.60;;
9052;SDS011;4561;47.450;7.516;2023-02-18T07:12:04;0.60;;;0.60;;
9052;SDS011;4561;47.450;7.516;2023-02-18T07:15:25;0.70;;;0.70;;
9052;SDS011;4561;47.450;7.516;2023-02-18T07:18:46;0.50;;;0.50;;
9052;SDS011;4561;47.450;7.516;2023-02-18T07:22:07;1.23;;;0.60;;
9052;SDS011;4561;47.450;7.516;2023-02-18T07:25:30;0.53;;;0.53;;
9052;SDS011;4561;47.450;7.516;2023-02-18T07:28:51;0.70;;;0.70;;
9052;SDS011;4561;47.450;7.516;2023-02-18T07:32:11;0.50;;;0.50;;
9052;SDS011;4561;47.450;7.516;2023-02-18T07:35:32;0.70;;;0.60;;
9052;SDS011;4561;47.450;7.516;2023-02-18T07:38:56;0.80;;;0.80;;
9052;SDS011;4561;47.450;7.516;2023-02-18T07:42:16;0.80;;;0.70;;
9052;SDS011;4561;47.450;7.516;2023-02-18T07:45:37;1.50;;;0.60;;
9052;SDS011;4561;47.450;7.516;2023-02-18T07:48:58;0.57;;;0.57;;
9052;SDS011;4561;47.450;7.516;2023-02-18T07:52:18;0.67;;;0.60;;
9052;SDS011;4561;47.450;7.516;2023-02-18T07:55:41;0.70;;;0.50;;
9052;SDS011;4561;47.450;7.516;2023-02-18T07:59:10;1.27;;;0.77;;
9052;SDS011;4561;47.450;7.516;2023-02-18T08:02:34;0.87;;;0.60;;
9052;SDS011;4561;47.450;7.516;2023-02-18T08:05:55;0.73;;;0.70;;
9052;SDS011;4561;47.450;7.516;2023-02-18T08:09:16;0.80;;;0.80;;
9052;SDS011;4561;47.450;7.516;2023-02-18T08:12:37;1.17;;;0.50;;
9052;SDS011;4561;47.450;7.516;2023-02-18T08:15:57;0.60;;;0.60;;
9052;SDS011;4561;47.450;7.516;2023-02-18T08:19:17;0.50;;;0.50;;
9052;SDS011;4561;47.450;7.516;2023-02-18T08:22:38;0.60;;;0.60;;
9052;SDS011;4561;47.450;7.516;2023-02-18T08:25:58;0.50;;;0.50;;
9052;SDS011;4561;47.450;7.516;2023-02-18T08:29:19;1.07;;;0.70;;
9052;SDS011;4561;47.450;7.516;2023-02-18T08:32:39;0.43;;;0.43;;
9052;SDS011;4561;47.450;7.516;2023-02-18T08:35:59;0.73;;;0.57;;
9052;SDS011;4561;47.450;7.516;2023-02-18T08:39:20;0.70;;;0.50;;
9052;SDS011;4561;47.450;7.516;2023-02-18T08:42:40;0.60;;;0.60;;
9052;SDS011;4561;47.450;7.516;2023-02-18T08:46:04;1.10;;;0.70;;
9052;SDS011;4561;47.450;7.516;2023-02-18T08:49:24;1.03;;;0.80;;
9052;SDS011;4561;47.450;7.516;2023-02-18T08:52:47;0.97;;;0.50;;
9052;SDS011;4561;47.450;7.516;2023-02-18T08:56:09;0.80;;;0.53;;
9052;SDS011;4561;47.450;7.516;2023-02-18T08:59:30;0.40;;;0.40;;
9052;SDS011;4561;47.450;7.516;2023-02-18T09:02:50;0.40;;;0.40;;
9052;SDS011;4561;47.450;7.516;2023-02-18T09:06:11;0.40;;;0.37;;
9052;SDS011;4561;47.450;7.516;2023-02-18T09:09:31;0.40;;;0.40;;
9052;SDS011;4561;47.450;7.516;2023-02-18T09:12:52;0.43;;;0.43;;
9052;SDS011;4561;47.450;7.516;2023-02-18T09:16:13;1.40;;;0.60;;
9052;SDS011;4561;47.450;7.516;2023-02-18T09:19:37;1.50;;;0.47;;
9052;SDS011;4561;47.450;7.516;2023-02-18T09:22:58;0.40;;;0.40;;
9052;SDS011;4561;47.450;7.516;2023-02-18T09:26:20;0.93;;;0.40;;
9052;SDS011;4561;47.450;7.516;2023-02-18T09:29:45;1.43;;;0.40;;
9052;SDS011;4561;47.450;7.516;2023-02-18T09:33:05;0.30;;;0.30;;
9052;SDS011;4561;47.450;7.516;2023-02-18T09:36:26;0.83;;;0.50;;
9052;SDS011;4561;47.450;7.516;2023-02-18T09:39:49;0.47;;;0.47;;
9052;SDS011;4561;47.450;7.516;2023-02-18T09:43:52;0.57;;;0.50;;
9052;SDS011;4561;47.450;7.516;2023-02-18T09:46:58;0.40;;;0.40;;
9052;SDS011;4561;47.450;7.516;2023-02-18T09:50:33;0.53;;;0.40;;
9052;SDS011;4561;47.450;7.516;2023-02-18T09:53:54;0.40;;;0.40;;
9052;SDS011;4561;47.450;7.516;2023-02-18T09:57:38;0.60;;;0.57;;
9052;SDS011;4561;47.450;7.516;2023-02-18T10:01:05;0.87;;;0.40;;
9052;SDS011;4561;47.450;7.516;2023-02-18T10:04:32;0.60;;;0.60;;
9052;SDS011;4561;47.450;7.516;2023-02-18T10:08:01;0.50;;;0.50;;
9052;SDS011;4561;47.450;7.516;2023-02-18T10:15:06;1.23;;;0.70;;
9052;SDS011;4561;47.450;7.516;2023-02-18T10:18:31;2.10;;;0.50;;
9052;SDS011;4561;47.450;7.516;2023-02-18T10:21:55;0.50;;;0.50;;
9052;SDS011;4561;47.450;7.516;2023-02-18T10:25:17;1.23;;;0.63;;
9052;SDS011;4561;47.450;7.516;2023-02-18T10:28:41;0.50;;;0.50;;
9052;SDS011;4561;47.450;7.516;2023-02-18T10:35:44;0.50;;;0.50;;
9052;SDS011;4561;47.450;7.516;2023-02-18T10:46:42;0.60;;;0.60;;
9052;SDS011;4561;47.450;7.516;2023-02-18T10:53:52;0.37;;;0.37;;
9052;SDS011;4561;47.450;7.516;2023-02-18T10:57:17;0.60;;;0.60;;
9052;SDS011;4561;47.450;7.516;2023-02-18T11:00:39;0.60;;;0.60;;
9052;SDS011;4561;47.450;7.516;2023-02-18T11:04:04;0.67;;;0.60;;
9052;SDS011;4561;47.450;7.516;2023-02-18T11:07:33;1.07;;;0.60;;
9052;SDS011;4561;47.450;7.516;2023-02-18T11:10:54;1.57;;;0.60;;
9052;SDS011;4561;47.450;7.516;2023-02-18T11:14:16;0.70;;;0.60;;
9052;SDS011;4561;47.450;7.516;2023-02-18T11:17:44;0.63;;;0.50;;
9052;SDS011;4561;47.450;7.516;2023-02-18T11:24:42;0.40;;;0.40;;
9052;SDS011;4561;47.450;7.516;2023-02-18T11:31:43;0.83;;;0.60;;
9052;SDS011;4561;47.450;7.516;2023-02-18T11:35:16;1.07;;;0.70;;
9052;SDS011;4561;47.450;7.516;2023-02-18T11:38:46;1.17;;;0.50;;
9052;SDS011;4561;47.450;7.516;2023-02-18T11:42:11;0.77;;;0.63;;
9052;SDS011;4561;47.450;7.516;2023-02-18T11:45:35;0.67;;;0.67;;
9052;SDS011;4561;47.450;7.516;2023-02-18T11:48:56;0.60;;;0.60;;
9052;SDS011;4561;47.450;7.516;2023-02-18T11:52:34;0.40;;;0.40;;
9052;SDS011;4561;47.450;7.516;2023-02-18T11:55:57;1.83;;;0.73;;
9052;SDS011;4561;47.450;7.516;2023-02-18T11:59:20;0.50;;;0.50;;
9052;SDS011;4561;47.450;7.516;2023-02-18T12:02:43;0.80;;;0.80;;
9052;SDS011;4561;47.450;7.516;2023-02-18T12:06:08;1.67;;;0.70;;
9052;SDS011;4561;47.450;7.516;2023-02-18T12:09:34;0.70;;;0.60;;
9052;SDS011;4561;47.450;7.516;2023-02-18T12:23:37;1.17;;;0.70;;
9052;SDS011;4561;47.450;7.516;2023-02-18T12:27:16;0.70;;;0.63;;
9052;SDS011;4561;47.450;7.516;2023-02-18T12:52:32;1.60;;;0.63;;
9052;SDS011;4561;47.450;7.516;2023-02-18T13:10:21;0.60;;;0.60;;
9052;SDS011;4561;47.450;7.516;2023-02-18T13:13:55;0.80;;;0.80;;
9052;SDS011;4561;47.450;7.516;2023-02-18T13:17:19;0.43;;;0.43;;
9052;SDS011;4561;47.450;7.516;2023-02-18T13:21:03;0.60;;;0.60;;
9052;SDS011;4561;47.450;7.516;2023-02-18T13:31:38;0.63;;;0.63;;
9052;SDS011;4561;47.450;7.516;2023-02-18T13:35:07;0.70;;;0.70;;
9052;SDS011;4561;47.450;7.516;2023-02-18T13:39:15;0.93;;;0.60;;
9052;SDS011;4561;47.450;7.516;2023-02-18T13:49:32;1.03;;;0.80;;
9052;SDS011;4561;47.450;7.516;2023-02-18T13:56:27;1.10;;;0.60;;
9052;SDS011;4561;47.450;7.516;2023-02-18T13:59:56;0.60;;;0.60;;
9052;SDS011;4561;47.450;7.516;2023-02-18T14:14:32;0.83;;;0.70;;
9052;SDS011;4561;47.450;7.516;2023-02-18T14:21:40;1.77;;;0.80;;
9052;SDS011;4561;47.450;7.516;2023-02-18T14:31:56;2.30;;;0.90;;
9052;SDS011;4561;47.450;7.516;2023-02-18T14:39:05;0.67;;;0.60;;
9052;SDS011;4561;47.450;7.516;2023-02-18T14:43:06;0.87;;;0.70;;
9052;SDS011;4561;47.450;7.516;2023-02-18T14:50:09;0.80;;;0.80;;
9052;SDS011;4561;47.450;7.516;2023-02-18T14:53:31;0.60;;;0.60;;
9052;SDS011;4561;47.450;7.516;2023-02-18T14:56:59;1.00;;;0.90;;
9052;SDS011;4561;47.450;7.516;2023-02-18T15:00:23;0.60;;;0.60;;
9052;SDS011;4561;47.450;7.516;2023-02-18T15:03:49;0.80;;;0.80;;
9052;SDS011;4561;47.450;7.516;2023-02-18T15:07:11;0.80;;;0.80;;
9052;SDS011;4561;47.450;7.516;2023-02-18T15:10:52;0.90;;;0.80;;
9052;SDS011;4561;47.450;7.516;2023-02-18T15:14:24;0.60;;;0.60;;
9052;SDS011;4561;47.450;7.516;2023-02-18T15:17:47;0.60;;;0.60;;
9052;SDS011;4561;47.450;7.516;2023-02-18T15:21:12;1.00;;;0.93;;
9052;SDS011;4561;47.450;7.516;2023-02-18T15:24:37;0.87;;;0.77;;
9052;SDS011;4561;47.450;7.516;2023-02-18T15:27:57;4.40;;;0.80;;
9052;SDS011;4561;47.450;7.516;2023-02-18T15:31:23;0.73;;;0.70;;
9052;SDS011;4561;47.450;7.516;2023-02-18T15:34:48;1.00;;;0.90;;
9052;SDS011;4561;47.450;7.516;2023-02-18T15:38:16;1.10;;;1.00;;
9052;SDS011;4561;47.450;7.516;2023-02-18T15:41:37;0.90;;;0.80;;
9052;SDS011;4561;47.450;7.516;2023-02-18T15:45:02;0.70;;;0.70;;
9052;SDS011;4561;47.450;7.516;2023-02-18T15:51:48;1.00;;;0.87;;
9052;SDS011;4561;47.450;7.516;2023-02-18T15:55:11;2.67;;;1.30;;
9052;SDS011;4561;47.450;7.516;2023-02-18T15:58:33;1.77;;;1.10;;
9052;SDS011;4561;47.450;7.516;2023-02-18T16:01:56;1.60;;;1.03;;
9052;SDS011;4561;47.450;7.516;2023-02-18T16:05:38;1.50;;;0.87;;
9052;SDS011;4561;47.450;7.516;2023-02-18T16:09:17;3.10;;;2.80;;
9052;SDS011;4561;47.450;7.516;2023-02-18T16:12:43;0.73;;;0.73;;
9052;SDS011;4561;47.450;7.516;2023-02-18T16:16:18;1.00;;;0.80;;
9052;SDS011;4561;47.450;7.516;2023-02-18T16:19:44;0.80;;;0.77;;
9052;SDS011;4561;47.450;7.516;2023-02-18T16:23:15;1.23;;;0.90;;
9052;SDS011;4561;47.450;7.516;2023-02-18T16:29:59;0.80;;;0.80;;
9052;SDS011;4561;47.450;7.516;2023-02-18T16:33:22;1.53;;;0.80;;
9052;SDS011;4561;47.450;7.516;2023-02-18T16:36:43;1.50;;;1.00;;
9052;SDS011;4561;47.450;7.516;2023-02-18T16:43:54;1.27;;;1.10;;
9052;SDS011;4561;47.450;7.516;2023-02-18T16:47:14;1.10;;;1.00;;
9052;SDS011;4561;47.450;7.516;2023-02-18T16:50:35;1.50;;;1.40;;
9052;SDS011;4561;47.450;7.516;2023-02-18T16:53:58;1.10;;;1.00;;
9052;SDS011;4561;47.450;7.516;2023-02-18T16:57:19;0.80;;;0.80;;
9052;SDS011;4561;47.450;7.516;2023-02-18T17:00:40;1.30;;;1.20;;
9052;SDS011;4561;47.450;7.516;2023-02-18T17:04:02;1.00;;;0.90;;
9052;SDS011;4561;47.450;7.516;2023-02-18T17:07:23;1.23;;;0.93;;
9052;SDS011;4561;47.450;7.516;2023-02-18T17:10:46;0.70;;;0.70;;
9052;SDS011;4561;47.450;7.516;2023-02-18T17:14:09;1.37;;;0.80;;
9052;SDS011;4561;47.450;7.516;2023-02-18T17:17:32;2.47;;;1.00;;
9052;SDS011;4561;47.450;7.516;2023-02-18T17:20:56;1.10;;;0.80;;
9052;SDS011;4561;47.450;7.516;2023-02-18T17:24:19;1.00;;;0.90;;
9052;SDS011;4561;47.450;7.516;2023-02-18T17:27:39;0.87;;;0.87;;
9052;SDS011;4561;47.450;7.516;2023-02-18T17:31:02;0.87;;;0.87;;
9052;SDS011;4561;47.450;7.516;2023-02-18T17:34:24;1.37;;;0.90;;
9052;SDS011;4561;47.450;7.516;2023-02-18T17:37:45;1.87;;;1.03;;
9052;SDS011;4561;47.450;7.516;2023-02-18T17:41:09;1.20;;;1.10;;
9052;SDS011;4561;47.450;7.516;2023-02-18T17:44:32;1.10;;;1.00;;
9052;SDS011;4561;47.450;7.516;2023-02-18T17:47:54;1.33;;;1.00;;
9052;SDS011;4561;47.450;7.516;2023-02-18T17:54:41;1.33;;;0.90;;
9052;SDS011;4561;47.450;7.516;2023-02-18T17:58:01;0.90;;;0.90;;
9052;SDS011;4561;47.450;7.516;2023-02-18T18:01:21;1.00;;;0.90;;
9052;SDS011;4561;47.450;7.516;2023-02-18T18:04:42;1.43;;;0.97;;
9052;SDS011;4561;47.450;7.516;2023-02-18T18:08:03;2.83;;;1.10;;
9052;SDS011;4561;47.450;7.516;2023-02-18T18:11:24;1.10;;;1.00;;
9052;SDS011;4561;47.450;7.516;2023-02-18T18:14:44;1.40;;;1.00;;
9052;SDS011;4561;47.450;7.516;2023-02-18T18:18:05;1.60;;;1.13;;
9052;SDS011;4561;47.450;7.516;2023-02-18T18:21:30;1.13;;;1.07;;
9052;SDS011;4561;47.450;7.516;2023-02-18T18:24:52;1.10;;;0.90;;
9052;SDS011;4561;47.450;7.516;2023-02-18T18:28:12;1.10;;;1.00;;
9052;SDS011;4561;47.450;7.516;2023-02-18T18:31:35;1.10;;;1.00;;
9052;SDS011;4561;47.450;7.516;2023-02-18T18:34:56;1.10;;;0.90;;
9052;SDS011;4561;47.450;7.516;2023-02-18T18:38:19;1.50;;;1.00;;
9052;SDS011;4561;47.450;7.516;2023-02-18T18:41:41;1.43;;;1.00;;
9052;SDS011;4561;47.450;7.516;2023-02-18T18:45:01;1.00;;;0.90;;
9052;SDS011;4561;47.450;7.516;2023-02-18T18:48:24;0.70;;;0.70;;
9052;SDS011;4561;47.450;7.516;2023-02-18T18:51:44;0.90;;;0.90;;
9052;SDS011;4561;47.450;7.516;2023-02-18T18:55:12;1.40;;;1.10;;
9052;SDS011;4561;47.450;7.516;2023-02-18T18:58:39;2.50;;;1.20;;
9052;SDS011;4561;47.450;7.516;2023-02-18T19:02:00;1.07;;;1.07;;
9052;SDS011;4561;47.450;7.516;2023-02-18T19:05:26;2.17;;;1.13;;
9052;SDS011;4561;47.450;7.516;2023-02-18T19:08:48;1.63;;;1.00;;
9052;SDS011;4561;47.450;7.516;2023-02-18T19:12:09;1.40;;;1.30;;
9052;SDS011;4561;47.450;7.516;2023-02-18T19:15:29;2.33;;;1.67;;
9052;SDS011;4561;47.450;7.516;2023-02-18T19:18:50;2.13;;;1.73;;
9052;SDS011;4561;47.450;7.516;2023-02-18T19:22:10;1.10;;;1.00;;
9052;SDS011;4561;47.450;7.516;2023-02-18T19:25:34;1.43;;;1.23;;
9052;SDS011;4561;47.450;7.516;2023-02-18T19:29:00;1.87;;;1.30;;
9052;SDS011;4561;47.450;7.516;2023-02-18T19:32:20;2.30;;;1.20;;
9052;SDS011;4561;47.450;7.516;2023-02-18T19:35:43;3.90;;;1.53;;
9052;SDS011;4561;47.450;7.516;2023-02-18T19:39:03;1.50;;;1.20;;
9052;SDS011;4561;47.450;7.516;2023-02-18T19:42:24;1.50;;;1.40;;
9052;SDS011;4561;47.450;7.516;2023-02-18T19:45:45;2.50;;;1.30;;
9052;SDS011;4561;47.450;7.516;2023-02-18T19:49:08;2.90;;;1.70;;
9052;SDS011;4561;47.450;7.516;2023-02-18T19:52:28;1.60;;;1.40;;
9052;SDS011;4561;47.450;7.516;2023-02-18T19:55:55;1.90;;;1.70;;
9052;SDS011;4561;47.450;7.516;2023-02-18T19:59:16;1.40;;;1.30;;
9052;SDS011;4561;47.450;7.516;2023-02-18T20:02:37;1.83;;;1.67;;
9052;SDS011;4561;47.450;7.516;2023-02-18T20:05:59;2.23;;;2.00;;
9052;SDS011;4561;47.450;7.516;2023-02-18T20:09:20;2.57;;;2.00;;
9052;SDS011;4561;47.450;7.516;2023-02-18T20:12:40;2.47;;;1.40;;
9052;SDS011;4561;47.450;7.516;2023-02-18T20:16:04;2.20;;;1.67;;
9052;SDS011;4561;47.450;7.516;2023-02-18T20:19:26;1.83;;;1.67;;
9052;SDS011;4561;47.450;7.516;2023-02-18T20:22:49;3.13;;;1.60;;
9052;SDS011;4561;47.450;7.516;2023-02-18T20:26:12;2.40;;;2.20;;
9052;SDS011;4561;47.450;7.516;2023-02-18T20:29:33;2.23;;;1.60;;
9052;SDS011;4561;47.450;7.516;2023-02-18T20:32:55;2.10;;;1.90;;
9052;SDS011;4561;47.450;7.516;2023-02-18T20:36:15;1.60;;;1.50;;
9052;SDS011;4561;47.450;7.516;2023-02-18T20:39:42;1.80;;;1.70;;
9052;SDS011;4561;47.450;7.516;2023-02-18T20:43:03;1.77;;;1.67;;
9052;SDS011;4561;47.450;7.516;2023-02-18T20:46:26;2.40;;;1.97;;
9052;SDS011;4561;47.450;7.516;2023-02-18T20:49:47;1.63;;;1.50;;
9052;SDS011;4561;47.450;7.516;2023-02-18T20:53:09;2.00;;;1.80;;
9052;SDS011;4561;47.450;7.516;2023-02-18T20:56:29;2.70;;;1.90;;
9052;SDS011;4561;47.450;7.516;2023-02-18T20:59:50;1.90;;;1.60;;
9052;SDS011;4561;47.450;7.516;2023-02-18T21:03:13;1.80;;;1.70;;
9052;SDS011;4561;47.450;7.516;2023-02-18T21:06:34;2.33;;;1.93;;
9052;SDS011;4561;47.450;7.516;2023-02-18T21:09:56;1.80;;;1.67;;
9052;SDS011;4561;47.450;7.516;2023-02-18T21:13:17;2.70;;;2.00;;
9052;SDS011;4561;47.450;7.516;2023-02-18T21:16:38;1.57;;;1.47;;
9052;SDS011;4561;47.450;7.516;2023-02-18T21:19:59;1.70;;;1.60;;
9052;SDS011;4561;47.450;7.516;2023-02-18T21:23:22;1.93;;;1.80;;
9052;SDS011;4561;47.450;7.516;2023-02-18T21:26:42;2.40;;;1.80;;
9052;SDS011;4561;47.450;7.516;2023-02-18T21:30:05;2.23;;;1.77;;
9052;SDS011;4561;47.450;7.516;2023-02-18T21:33:28;2.47;;;1.90;;
9052;SDS011;4561;47.450;7.516;2023-02-18T21:36:48;1.93;;;1.80;;
9052;SDS011;4561;47.450;7.516;2023-02-18T21:40:09;1.63;;;1.53;;
9052;SDS011;4561;47.450;7.516;2023-02-18T21:43:31;1.90;;;1.70;;
9052;SDS011;4561;47.450;7.516;2023-02-18T21:46:52;2.47;;;1.60;;
9052;SDS011;4561;47.450;7.516;2023-02-18T21:50:13;1.83;;;1.67;;
9052;SDS011;4561;47.450;7.516;2023-02-18T21:53:33;2.27;;;1.90;;
9052;SDS011;4561;47.450;7.516;2023-02-18T21:57:00;2.20;;;1.70;;
9052;SDS011;4561;47.450;7.516;2023-02-18T22:00:22;2.50;;;1.93;;
9052;SDS011;4561;47.450;7.516;2023-02-18T22:03:43;2.07;;;1.80;;
9052;SDS011;4561;47.450;7.516;2023-02-18T22:07:06;2.33;;;1.70;;
9052;SDS011;4561;47.450;7.516;2023-02-18T22:10:27;1.70;;;1.53;;
9052;SDS011;4561;47.450;7.516;2023-02-18T22:13:48;1.90;;;1.50;;
9052;SDS011;4561;47.450;7.516;2023-02-18T22:17:08;2.40;;;1.57;;
9052;SDS011;4561;47.450;7.516;2023-02-18T22:20:29;2.37;;;1.70;;
9052;SDS011;4561;47.450;7.516;2023-02-18T22:23:54;1.77;;;1.47;;
9052;SDS011;4561;47.450;7.516;2023-02-18T22:27:14;1.83;;;1.40;;
9052;SDS011;4561;47.450;7.516;2023-02-18T22:30:34;1.40;;;1.30;;
9052;SDS011;4561;47.450;7.516;2023-02-18T22:33:58;1.37;;;1.27;;
9052;SDS011;4561;47.450;7.516;2023-02-18T22:37:23;3.27;;;1.40;;
9052;SDS011;4561;47.450;7.516;2023-02-18T22:40:46;1.63;;;1.33;;
9052;SDS011;4561;47.450;7.516;2023-02-18T22:44:07;1.30;;;1.20;;
9052;SDS011;4561;47.450;7.516;2023-02-18T22:47:32;1.70;;;1.33;;
9052;SDS011;4561;47.450;7.516;2023-02-18T22:50:53;4.10;;;1.40;;
9052;SDS011;4561;47.450;7.516;2023-02-18T22:54:16;1.43;;;1.33;;
9052;SDS011;4561;47.450;7.516;2023-02-18T22:57:37;2.23;;;1.10;;
9052;SDS011;4561;47.450;7.516;2023-02-18T23:00:57;1.57;;;1.10;;
9052;SDS011;4561;47.450;7.516;2023-02-18T23:04:20;1.20;;;1.00;;
9052;SDS011;4561;47.450;7.516;2023-02-18T23:07:40;1.40;;;1.13;;
9052;SDS011;4561;47.450;7.516;2023-02-18T23:11:02;1.47;;;1.17;;
9052;SDS011;4561;47.450;7.516;2023-02-18T23:14:25;1.17;;;1.07;;
9052;SDS011;4561;47.450;7.516;2023-02-18T23:17:49;1.00;;;1.00;;
9052;SDS011;4561;47.450;7.516;2023-02-18T23:21:11;1.40;;;1.30;;
9052;SDS011;4561;47.450;7.516;2023-02-18T23:24:42;1.27;;;1.07;;
9052;SDS011;4561;47.450;7.516;2023-02-18T23:28:05;1.17;;;1.07;;
9052;SDS011;4561;47.450;7.516;2023-02-18T23:31:27;1.13;;;1.10;;
9052;SDS011;4561;47.450;7.516;2023-02-18T23:34:50;1.00;;;0.90;;
9052;SDS011;4561;47.450;7.516;2023-02-18T23:38:13;1.50;;;0.97;;
9052;SDS011;4561;47.450;7.516;2023-02-18T23:41:36;1.23;;;0.80;;
9052;SDS011;4561;47.450;7.516;2023-02-18T23:44:57;1.60;;;1.03;;
9052;SDS011;4561;47.450;7.516;2023-02-18T23:48:17;1.07;;;0.93;;
9052;SDS011;4561;47.450;7.516;2023-02-18T23:51:43;1.00;;;1.00;;